This is the latest recevied weather packets stored in our database for station/object IR1ZYZ-3. If no packets are shown the sender has not sent any weather packets the latest 10 day(s).
| Time | Temp. | Humidity | Pressure | Rain* | Wind** | Luminosity | Snow |
|---|---|---|---|---|---|---|---|
| 1777308448 | 18.89° C | 86% | 1018.1 hPa | - | - | - | - |
| 1777307843 | 20.56° C | 78% | 1017.9 hPa | - | - | - | - |
| 1777307238 | 20.56° C | 76% | 1018 hPa | - | - | - | - |
| 1777306633 | 20.56° C | 75% | 1017.9 hPa | - | - | - | - |
| 1777306028 | 21.67° C | 71% | 1017.8 hPa | - | - | - | - |
| 1777305424 | 22.22° C | 68% | 1017.8 hPa | - | - | - | - |
| 1777304819 | 22.78° C | 69% | 1017.8 hPa | - | - | - | - |
| 1777304214 | 23.33° C | 63% | 1017.8 hPa | - | - | - | - |
| 1777303609 | 23.33° C | 62% | 1017.8 hPa | - | - | - | - |
| 1777303004 | 23.89° C | 61% | 1017.7 hPa | - | - | - | - |
| 1777302399 | 24.44° C | 61% | 1017.8 hPa | - | - | - | - |
| 1777301793 | 23.33° C | 61% | 1017.9 hPa | - | - | - | - |
| 1777301188 | 25.56° C | 55% | 1017.8 hPa | - | - | - | - |
| 1777300582 | 25° C | 57% | 1017.9 hPa | - | - | - | - |
| 1777299977 | 25° C | 58% | 1018.1 hPa | - | - | - | - |
| 1777299372 | 25.56° C | 58% | 1018 hPa | - | - | - | - |
| 1777298766 | 26.67° C | 55% | 1018.1 hPa | - | - | - | - |
| 1777298161 | 26.67° C | 54% | 1018.2 hPa | - | - | - | - |
| 1777297556 | 26.11° C | 58% | 1018.4 hPa | - | - | - | - |
| 1777296950 | 26.67° C | 58% | 1018.6 hPa | - | - | - | - |
| 1777296345 | 26.67° C | 54% | 1018.7 hPa | - | - | - | - |
| 1777295739 | 26.67° C | 56% | 1018.8 hPa | - | - | - | - |
| 1777295134 | 26.67° C | 64% | 1018.8 hPa | - | - | - | - |
| 1777294529 | 24.44° C | 63% | 1019.2 hPa | - | - | - | - |
| 1777293923 | 23.89° C | 64% | 1019.3 hPa | - | - | - | - |
* Rain since midnight (hover to see other rain measurements)
** Current wind speed in m/s (hover to see current wind gust speed)